createdAt,value
2023-12-29T00:02:54.864Z,101101.38
2023-12-29T00:06:14.859Z,101098.72
2023-12-29T00:09:47.608Z,101096.94
2023-12-29T00:13:11.810Z,101091.59
2023-12-29T00:16:32.860Z,101092.63
2023-12-29T00:19:35.967Z,101093.69
2023-12-29T00:22:41.637Z,101083.31
2023-12-29T00:25:53.104Z,101075.84
2023-12-29T00:29:00.544Z,101067.09
2023-12-29T00:32:14.076Z,101070.63
2023-12-29T00:35:30.236Z,101071.72
2023-12-29T00:38:35.670Z,101080.47
2023-12-29T00:41:52.109Z,101083.03
2023-12-29T00:45:14.524Z,101087.16
2023-12-29T00:48:17.974Z,101075.34
2023-12-29T00:51:21.580Z,101063.47
2023-12-29T00:54:30.146Z,101067.19
2023-12-29T00:57:53.621Z,101071.50
2023-12-29T01:01:19.696Z,101068.94
2023-12-29T01:04:37.010Z,101068.13
2023-12-29T01:07:52.855Z,101081.16
2023-12-29T01:11:11.985Z,101079.25
2023-12-29T01:14:22.056Z,101071.53
2023-12-29T01:17:28.830Z,101076.78
2023-12-29T01:20:32.458Z,101079.69
2023-12-29T01:23:35.889Z,101075.28
2023-12-29T01:26:45.496Z,101075.72
2023-12-29T01:29:54.059Z,101075.78
2023-12-29T01:33:17.602Z,101062.38
2023-12-29T01:36:35.019Z,101062.34
2023-12-29T01:39:38.282Z,101061.16
2023-12-29T01:42:50.120Z,101056.75
2023-12-29T01:45:58.238Z,101054.31
2023-12-29T01:49:11.723Z,101049.59
2023-12-29T01:52:33.528Z,101049.06
2023-12-29T01:55:48.302Z,101040.72
2023-12-29T01:59:14.947Z,101037.16
2023-12-29T02:02:32.645Z,101033.34
2023-12-29T02:05:47.856Z,101032.69
2023-12-29T02:09:05.675Z,101032.16
2023-12-29T02:12:26.434Z,101036.47
2023-12-29T02:15:50.647Z,101041.72
2023-12-29T02:18:58.718Z,101035.78
2023-12-29T02:22:02.631Z,101040.00
2023-12-29T02:25:20.305Z,101036.59
2023-12-29T02:28:37.573Z,101033.47
2023-12-29T02:31:44.947Z,101025.56
2023-12-29T02:34:54.859Z,101020.88
2023-12-29T02:38:00.203Z,101008.88
2023-12-29T02:41:09.989Z,101011.09
2023-12-29T02:44:28.870Z,101020.28
2023-12-29T02:47:37.901Z,101009.47
2023-12-29T02:50:41.760Z,101011.09
2023-12-29T02:53:56.309Z,101013.13
2023-12-29T02:57:12.385Z,101018.56
2023-12-29T03:00:38.218Z,101017.19
2023-12-29T03:03:56.176Z,101008.22
2023-12-29T03:07:19.360Z,100997.22
2023-12-29T03:10:42.275Z,100999.94
2023-12-29T03:14:04.675Z,100990.25
2023-12-29T03:17:23.306Z,100998.38
2023-12-29T03:20:50.411Z,101006.66
2023-12-29T03:24:09.254Z,100989.78
2023-12-29T03:27:29.500Z,100991.03
2023-12-29T03:30:38.336Z,101001.19
2023-12-29T03:34:01.398Z,100999.97
2023-12-29T03:37:24.307Z,101002.28
2023-12-29T03:40:49.278Z,100989.50
2023-12-29T03:44:15.612Z,100993.16
2023-12-29T03:47:37.379Z,100987.09
2023-12-29T03:50:41.722Z,101001.78
2023-12-29T03:53:51.204Z,101008.06
2023-12-29T03:56:55.440Z,100998.97
2023-12-29T03:59:58.274Z,101007.25
2023-12-29T04:03:02.212Z,101000.16
2023-12-29T04:06:11.351Z,101013.66
2023-12-29T04:09:21.914Z,101012.13
2023-12-29T04:12:37.023Z,101002.00
2023-12-29T04:16:00.284Z,101005.34
2023-12-29T04:19:20.787Z,101011.84
2023-12-29T04:22:45.235Z,101010.34
2023-12-29T04:26:10.304Z,101014.50
2023-12-29T04:29:25.122Z,101018.97
2023-12-29T04:32:48.124Z,101011.03
2023-12-29T04:36:13.128Z,101016.06
2023-12-29T04:39:22.596Z,101009.16
2023-12-29T04:42:26.815Z,101008.84
2023-12-29T04:45:33.705Z,101001.53
2023-12-29T04:48:43.532Z,100997.50
2023-12-29T04:52:03.160Z,101000.91
2023-12-29T04:55:07.927Z,101004.53
2023-12-29T04:58:11.401Z,101005.00
2023-12-29T05:01:28.135Z,101008.97
2023-12-29T05:04:51.185Z,101005.19
2023-12-29T05:08:00.934Z,101009.84
2023-12-29T05:11:10.522Z,101021.00
2023-12-29T05:14:21.410Z,101014.16
2023-12-29T05:17:38.635Z,101010.78
2023-12-29T05:21:03.223Z,101019.97
2023-12-29T05:24:20.142Z,101015.72
2023-12-29T05:27:37.506Z,101029.50
2023-12-29T05:30:55.337Z,101021.53
2023-12-29T05:34:19.958Z,101030.91
2023-12-29T05:37:44.975Z,101023.47
2023-12-29T05:40:54.846Z,101029.50
2023-12-29T05:44:02.379Z,101036.78
2023-12-29T05:47:10.981Z,101049.28
2023-12-29T05:50:22.405Z,101044.31
2023-12-29T05:53:25.651Z,101038.97
2023-12-29T05:56:42.360Z,101049.94
2023-12-29T05:59:59.979Z,101035.22
2023-12-29T06:03:18.274Z,101041.75
2023-12-29T06:06:42.079Z,101047.56
2023-12-29T06:10:32.705Z,101060.66
2023-12-29T06:13:37.425Z,101052.69
2023-12-29T06:17:00.154Z,101045.69
2023-12-29T06:20:22.218Z,101047.03
2023-12-29T06:23:36.508Z,101038.63
2023-12-29T06:26:55.941Z,101039.66
2023-12-29T06:30:19.201Z,101032.13
2023-12-29T06:33:34.884Z,101040.25
2023-12-29T06:36:42.259Z,101042.69
2023-12-29T06:39:46.457Z,101039.50
2023-12-29T06:42:58.476Z,101039.94
2023-12-29T06:46:21.868Z,101046.97
2023-12-29T06:49:39.583Z,101055.72
2023-12-29T06:53:05.879Z,101042.56
2023-12-29T06:56:31.779Z,101041.03
2023-12-29T07:00:00.492Z,101036.13
2023-12-29T07:03:21.729Z,101040.03
2023-12-29T07:06:31.650Z,101044.84
2023-12-29T07:09:44.428Z,101044.09
2023-12-29T07:12:49.368Z,101057.63
2023-12-29T07:16:02.414Z,101047.94
2023-12-29T07:19:09.947Z,101049.91
2023-12-29T07:22:20.767Z,101045.56
2023-12-29T07:25:24.196Z,101051.84
2023-12-29T07:28:35.708Z,101057.69
2023-12-29T07:32:01.669Z,101040.91
2023-12-29T07:35:11.928Z,101054.19
2023-12-29T07:38:28.736Z,101036.88
2023-12-29T07:42:07.810Z,101035.94
2023-12-29T07:45:26.170Z,101032.53
2023-12-29T07:48:43.420Z,101046.72
2023-12-29T07:52:08.738Z,101047.22
2023-12-29T07:55:32.576Z,101046.13
2023-12-29T07:58:44.830Z,101049.09
2023-12-29T08:02:08.540Z,101050.19
2023-12-29T08:05:26.416Z,101050.16
2023-12-29T08:08:29.801Z,101042.88
2023-12-29T08:11:33.318Z,101048.91
2023-12-29T08:14:52.677Z,101052.19
2023-12-29T08:18:22.544Z,101052.31
2023-12-29T08:21:39.363Z,101058.72
2023-12-29T08:25:02.630Z,101069.09
2023-12-29T08:28:27.602Z,101061.75
2023-12-29T08:31:42.302Z,101058.50
2023-12-29T08:34:48.821Z,101060.38
2023-12-29T08:38:02.860Z,101058.72
2023-12-29T08:41:23.619Z,101057.00
2023-12-29T08:44:44.707Z,101062.59
2023-12-29T08:48:05.544Z,101056.63
2023-12-29T08:51:10.096Z,101056.84
2023-12-29T08:54:20.975Z,101047.44
2023-12-29T08:57:25.473Z,101052.69
2023-12-29T09:00:33.219Z,101055.72
2023-12-29T09:03:40.439Z,101064.56
2023-12-29T09:06:57.548Z,101074.50
2023-12-29T09:10:19.560Z,101066.91
2023-12-29T09:13:27.729Z,101064.97
2023-12-29T09:16:31.727Z,101041.03
2023-12-29T09:20:04.345Z,101041.00
2023-12-29T09:23:21.378Z,101059.63
2023-12-29T09:26:37.591Z,101072.75
2023-12-29T09:29:58.277Z,101060.66
2023-12-29T09:33:08.440Z,101051.63
2023-12-29T09:36:35.380Z,101058.47
2023-12-29T09:39:55.551Z,101056.25
2023-12-29T09:43:13.304Z,101052.25
2023-12-29T09:46:50.289Z,101047.22
2023-12-29T09:50:11.381Z,101046.88
2023-12-29T09:53:34.290Z,101044.34
2023-12-29T09:56:39.471Z,101039.22
2023-12-29T09:59:54.067Z,101034.34
2023-12-29T10:03:05.245Z,101030.75
2023-12-29T10:06:22.916Z,101030.38
2023-12-29T10:09:36.052Z,101027.53
2023-12-29T10:12:56.712Z,101019.94
2023-12-29T10:16:50.245Z,101014.00
2023-12-29T10:20:31.331Z,101022.47
2023-12-29T10:23:55.295Z,101012.94
2023-12-29T10:27:15.301Z,101007.56
2023-12-29T10:30:37.462Z,100995.50
2023-12-29T10:33:58.281Z,101006.81
2023-12-29T10:37:21.347Z,101000.31
2023-12-29T10:40:41.105Z,100996.38
2023-12-29T10:44:00.207Z,100991.00
2023-12-29T10:47:16.400Z,100989.75
2023-12-29T10:50:40.218Z,100981.66
2023-12-29T10:54:00.225Z,100985.50
2023-12-29T10:57:28.281Z,100990.91
2023-12-29T11:00:45.273Z,100980.03
2023-12-29T11:04:07.387Z,100979.97
2023-12-29T11:07:27.111Z,100972.16
2023-12-29T11:10:50.269Z,100963.19
2023-12-29T11:14:08.101Z,100965.22
2023-12-29T11:17:13.766Z,100958.13
2023-12-29T11:20:21.762Z,100955.78
2023-12-29T11:27:18.049Z,100944.59
2023-12-29T11:30:28.963Z,100941.41
2023-12-29T11:33:46.063Z,100938.31
2023-12-29T11:37:14.780Z,100938.06
2023-12-29T11:41:18.321Z,100933.59
2023-12-29T11:44:29.372Z,100927.91
2023-12-29T11:47:45.493Z,100926.56
2023-12-29T11:50:50.127Z,100915.63
2023-12-29T11:53:56.960Z,100906.16
2023-12-29T11:57:04.518Z,100902.50
2023-12-29T12:00:19.214Z,100893.03
2023-12-29T12:03:42.089Z,100902.03
2023-12-29T12:07:04.999Z,100897.22
2023-12-29T12:10:39.986Z,100892.47
2023-12-29T12:13:50.468Z,100888.59
2023-12-29T12:17:12.085Z,100872.00
2023-12-29T12:20:29.906Z,100886.16
2023-12-29T12:23:49.023Z,100883.75
2023-12-29T12:27:18.128Z,100869.63
2023-12-29T12:30:22.324Z,100862.06
2023-12-29T12:33:29.727Z,100858.78
2023-12-29T12:36:50.795Z,100866.72
2023-12-29T12:39:55.696Z,100870.06
2023-12-29T12:43:19.644Z,100863.38
2023-12-29T12:46:47.912Z,100859.53
2023-12-29T12:50:02.942Z,100866.03
2023-12-29T12:53:22.399Z,100864.94
2023-12-29T12:56:45.996Z,100870.84
2023-12-29T13:00:04.129Z,100874.09
2023-12-29T13:03:24.837Z,100872.22
2023-12-29T13:06:40.425Z,100853.16
2023-12-29T13:09:52.126Z,100856.34
2023-12-29T13:13:02.348Z,100846.75
2023-12-29T13:16:09.728Z,100852.19
2023-12-29T13:19:21.169Z,100858.13
2023-12-29T13:22:34.636Z,100845.22
2023-12-29T13:25:41.624Z,100842.72
2023-12-29T13:28:49.089Z,100849.47
2023-12-29T13:32:38.861Z,100859.56
2023-12-29T13:36:07.866Z,100860.06
2023-12-29T13:39:49.138Z,100852.78
2023-12-29T13:43:03.583Z,100849.84
2023-12-29T13:46:13.042Z,100849.25
2023-12-29T13:49:27.141Z,100851.13
2023-12-29T13:52:31.267Z,100833.06
2023-12-29T13:55:44.641Z,100838.19
2023-12-29T13:59:10.635Z,100844.63
2023-12-29T14:02:32.919Z,100836.38
2023-12-29T14:05:53.220Z,100840.72
2023-12-29T14:09:07.904Z,100841.69
2023-12-29T14:12:32.509Z,100847.59
2023-12-29T14:15:54.542Z,100875.63
2023-12-29T14:19:18.643Z,100852.44
2023-12-29T14:22:32.692Z,100848.66
2023-12-29T14:25:56.655Z,100848.66
2023-12-29T14:29:12.855Z,100834.16
2023-12-29T14:32:19.225Z,100851.13
2023-12-29T14:35:33.654Z,100850.00
2023-12-29T14:38:37.870Z,100865.00
2023-12-29T14:42:01.504Z,100874.97
2023-12-29T14:45:23.702Z,100867.44
2023-12-29T14:48:41.187Z,100879.81
2023-12-29T14:51:58.457Z,100878.84
2023-12-29T14:55:27.092Z,100882.25
2023-12-29T14:58:50.060Z,100888.25
2023-12-29T15:02:09.216Z,100883.09
2023-12-29T15:05:12.413Z,100886.84
2023-12-29T15:08:16.809Z,100900.00
2023-12-29T15:11:27.097Z,100900.19
2023-12-29T15:14:54.455Z,100896.81
2023-12-29T15:18:16.080Z,100905.53
2023-12-29T15:21:19.590Z,100909.19
2023-12-29T15:24:35.670Z,100909.91
2023-12-29T15:27:59.475Z,100912.84
2023-12-29T15:31:17.775Z,100913.56
2023-12-29T15:34:22.670Z,100907.16
2023-12-29T15:37:30.547Z,100909.91
2023-12-29T15:40:33.846Z,100911.94
2023-12-29T15:43:38.213Z,100921.34
2023-12-29T15:46:54.064Z,100914.63
2023-12-29T15:49:57.676Z,100924.06
2023-12-29T15:53:17.471Z,100935.84
2023-12-29T15:56:57.333Z,100934.53
2023-12-29T16:00:26.200Z,100933.97
2023-12-29T16:03:45.286Z,100931.59
2023-12-29T16:07:09.233Z,100918.13
2023-12-29T16:10:32.608Z,100914.19
2023-12-29T16:13:54.143Z,100909.84
2023-12-29T16:17:04.249Z,100901.19
2023-12-29T16:20:07.912Z,100907.00
2023-12-29T16:23:12.797Z,100929.00
2023-12-29T16:26:42.865Z,100931.00
2023-12-29T16:29:57.126Z,100922.06
2023-12-29T16:33:20.502Z,100910.38
2023-12-29T16:36:31.393Z,100893.91
2023-12-29T16:39:48.679Z,100899.41
2023-12-29T16:42:57.058Z,100912.56
2023-12-29T16:46:00.831Z,100912.00
2023-12-29T16:49:15.481Z,100909.75
2023-12-29T16:52:31.323Z,100896.53
2023-12-29T16:56:01.394Z,100893.16
2023-12-29T16:59:23.439Z,100883.31
2023-12-29T17:02:42.663Z,100886.63
2023-12-29T17:06:01.438Z,100882.41
2023-12-29T17:09:28.237Z,100887.69
2023-12-29T17:12:49.257Z,100874.38
2023-12-29T17:16:06.539Z,100870.72
2023-12-29T17:19:26.439Z,100881.47
2023-12-29T17:22:52.041Z,100882.75
2023-12-29T17:26:15.734Z,100887.06
2023-12-29T17:29:38.694Z,100875.50
2023-12-29T17:33:01.623Z,100863.22
2023-12-29T17:36:16.657Z,100880.97
2023-12-29T17:39:42.187Z,100873.88
2023-12-29T17:43:05.214Z,100886.25
2023-12-29T17:46:15.495Z,100878.78
2023-12-29T17:49:35.277Z,100881.63
2023-12-29T17:53:01.423Z,100887.19
2023-12-29T17:56:09.015Z,100873.63
2023-12-29T17:59:16.622Z,100868.63
2023-12-29T18:02:37.834Z,100864.88
2023-12-29T18:05:59.802Z,100875.06
2023-12-29T18:09:14.742Z,100873.66
2023-12-29T18:12:38.080Z,100873.03
2023-12-29T18:16:08.077Z,100875.59
2023-12-29T18:19:27.804Z,100881.41
2023-12-29T18:22:35.533Z,100883.44
2023-12-29T18:25:44.936Z,100883.94
2023-12-29T18:28:48.396Z,100882.44
2023-12-29T18:32:17.832Z,100881.06
2023-12-29T18:35:17.064Z,100882.91
2023-12-29T18:38:35.884Z,100878.19
2023-12-29T18:41:52.237Z,100887.06
2023-12-29T18:45:09.063Z,100886.41
2023-12-29T18:48:38.600Z,100890.72
2023-12-29T18:52:00.038Z,100881.13
2023-12-29T18:55:17.505Z,100880.88
2023-12-29T18:58:40.940Z,100875.50
2023-12-29T19:02:01.277Z,100873.19
2023-12-29T19:05:20.847Z,100874.00
2023-12-29T19:08:37.258Z,100875.13
2023-12-29T19:12:05.946Z,100878.19
2023-12-29T19:15:30.285Z,100884.31
2023-12-29T19:18:36.836Z,100871.19
2023-12-29T19:21:44.286Z,100864.63
2023-12-29T19:24:50.011Z,100870.31
2023-12-29T19:28:14.099Z,100856.31
2023-12-29T19:31:18.955Z,100860.47
2023-12-29T19:34:22.099Z,100856.41
2023-12-29T19:37:27.161Z,100853.06
2023-12-29T19:40:37.938Z,100850.13
2023-12-29T19:43:48.312Z,100852.81
2023-12-29T19:46:52.445Z,100853.22
2023-12-29T19:49:59.636Z,100854.78
2023-12-29T19:53:15.897Z,100860.94
2023-12-29T19:56:33.924Z,100855.88
2023-12-29T19:59:54.278Z,100857.91
2023-12-29T20:03:11.805Z,100864.34
2023-12-29T20:06:31.113Z,100865.94
2023-12-29T20:09:51.967Z,100863.50
2023-12-29T20:13:15.713Z,100853.50
2023-12-29T20:16:24.732Z,100860.59
2023-12-29T20:19:29.185Z,100853.84
2023-12-29T20:22:52.445Z,100857.31
2023-12-29T20:26:02.886Z,100865.94
2023-12-29T20:29:10.108Z,100845.91
2023-12-29T20:32:21.083Z,100852.56
2023-12-29T20:35:32.410Z,100851.09
2023-12-29T20:38:39.580Z,100850.19
2023-12-29T20:41:46.305Z,100851.34
2023-12-29T20:44:58.181Z,100848.00
2023-12-29T20:48:15.762Z,100852.28
2023-12-29T20:51:28.058Z,100844.44
2023-12-29T20:54:51.744Z,100842.84
2023-12-29T20:58:14.590Z,100844.97
2023-12-29T21:01:36.753Z,100830.97
2023-12-29T21:04:40.500Z,100830.41
2023-12-29T21:08:03.663Z,100827.81
2023-12-29T21:11:41.685Z,100835.88
2023-12-29T21:15:07.631Z,100834.97
2023-12-29T21:18:23.823Z,100847.78
2023-12-29T21:21:53.523Z,100853.03
2023-12-29T21:25:10.656Z,100859.31
2023-12-29T21:28:14.038Z,100865.41
2023-12-29T21:31:21.913Z,100865.47
2023-12-29T21:34:29.630Z,100856.97
2023-12-29T21:37:50.313Z,100856.97
2023-12-29T21:41:12.203Z,100850.13
2023-12-29T21:44:36.911Z,100851.41
2023-12-29T21:47:55.441Z,100852.69
2023-12-29T21:51:12.708Z,100845.03
2023-12-29T21:54:34.451Z,100850.00
2023-12-29T21:58:03.177Z,100847.69
2023-12-29T22:01:51.141Z,100838.38
2023-12-29T22:05:12.955Z,100840.09
2023-12-29T22:08:20.737Z,100840.22
2023-12-29T22:11:31.223Z,100835.22
2023-12-29T22:14:41.164Z,100827.31
2023-12-29T22:18:07.462Z,100838.81
2023-12-29T22:21:19.605Z,100826.97
2023-12-29T22:24:29.102Z,100821.81
2023-12-29T22:27:34.140Z,100817.50
2023-12-29T22:30:58.327Z,100813.91
2023-12-29T22:34:26.235Z,100807.06
2023-12-29T22:37:42.467Z,100816.81
2023-12-29T22:41:08.510Z,100815.31
2023-12-29T22:44:30.293Z,100809.50
2023-12-29T22:47:53.371Z,100809.59
2023-12-29T22:51:19.318Z,100806.69
2023-12-29T22:54:22.551Z,100815.66
2023-12-29T22:57:46.443Z,100823.78
2023-12-29T23:01:21.317Z,100808.19
2023-12-29T23:04:43.175Z,100815.66
2023-12-29T23:08:00.377Z,100805.44
2023-12-29T23:11:21.408Z,100800.50
2023-12-29T23:14:50.239Z,100794.56
2023-12-29T23:18:16.156Z,100791.44
2023-12-29T23:21:19.898Z,100791.22
2023-12-29T23:24:30.082Z,100788.53
2023-12-29T23:27:46.478Z,100785.28
2023-12-29T23:31:24.342Z,100783.50
2023-12-29T23:35:14.055Z,100784.34
2023-12-29T23:38:28.065Z,100791.09
2023-12-29T23:41:48.358Z,100793.91
2023-12-29T23:45:11.447Z,100791.81
2023-12-29T23:48:28.886Z,100786.53
2023-12-29T23:51:52.248Z,100787.25
2023-12-29T23:55:09.378Z,100783.97
2023-12-29T23:58:29.282Z,100780.84
